Terminal Aerodrome Forecast
Issued by NWS Dallas/Fort Worth, TX

Home | Current Version | Previous Version | Text Only | Print | Product List | Glossary On
Versions: 1 2 3 4 5 6 7 8 9 10 11 12 13 14 15 16 17 18 19 20 21 22 23 24 25 26 27 28 29 30 31 32 33 34
000
FTUS44 KFWD 012102 CCA
TAFACT
TAF COR
KACT 012102Z 0121/0218 36012KT 6SM BR OVC005
     FM020200 01012KT 5SM -RA BR OVC006
     FM021200 01009KT 3SM BR OVC005
     FM021600 01007KT 1SM BR OVC003=

USA.gov is the U.S. government's official web portal to all federal, state and local government web resources and services.